createdAt,value
2019-05-19T00:01:37.686Z,14.30
2019-05-19T00:04:06.830Z,14.30
2019-05-19T00:06:36.003Z,14.30
2019-05-19T00:09:05.485Z,14.30
2019-05-19T00:11:34.578Z,14.20
2019-05-19T00:14:03.746Z,14.20
2019-05-19T00:16:32.892Z,14.20
2019-05-19T00:19:02.216Z,14.20
2019-05-19T00:21:31.374Z,14.10
2019-05-19T00:24:00.554Z,14.20
2019-05-19T00:26:29.729Z,14.10
2019-05-19T00:28:58.942Z,14.10
2019-05-19T00:31:28.037Z,14.10
2019-05-19T00:33:57.210Z,14.10
2019-05-19T00:36:26.301Z,14.10
2019-05-19T00:38:55.498Z,14.10
2019-05-19T00:41:24.726Z,14.00
2019-05-19T00:43:53.819Z,14.00
2019-05-19T00:46:23.072Z,14.00
2019-05-19T00:48:52.233Z,14.00
2019-05-19T00:51:21.337Z,14.00
2019-05-19T00:53:50.537Z,14.00
2019-05-19T00:56:19.754Z,13.90
2019-05-19T00:58:49.053Z,13.90
2019-05-19T01:01:18.217Z,13.90
2019-05-19T01:03:47.402Z,13.80
2019-05-19T01:06:16.626Z,13.80
2019-05-19T01:08:45.905Z,13.80
2019-05-19T01:11:15.107Z,13.90
2019-05-19T01:13:44.269Z,13.80
2019-05-19T01:16:13.374Z,13.90
2019-05-19T01:18:42.482Z,13.90
2019-05-19T01:21:11.652Z,13.90
2019-05-19T01:23:40.832Z,13.80
2019-05-19T01:26:10.004Z,13.80
2019-05-19T01:28:39.199Z,13.80
2019-05-19T01:31:08.366Z,13.80
2019-05-19T01:33:37.456Z,13.80
2019-05-19T01:36:06.650Z,13.80
2019-05-19T01:38:35.845Z,13.70
2019-05-19T01:41:05.082Z,13.70
2019-05-19T01:43:34.299Z,13.70
2019-05-19T01:46:03.450Z,13.80
2019-05-19T01:48:32.646Z,13.80
2019-05-19T01:51:01.833Z,13.80
2019-05-19T01:53:30.937Z,13.80
2019-05-19T01:56:00.090Z,13.70
2019-05-19T01:58:29.191Z,13.80
2019-05-19T02:00:58.486Z,13.70
2019-05-19T02:03:27.574Z,13.70
2019-05-19T02:05:56.748Z,13.70
2019-05-19T02:08:25.913Z,13.60
2019-05-19T02:10:55.091Z,13.50
2019-05-19T02:13:24.275Z,13.60
2019-05-19T02:15:53.434Z,13.60
2019-05-19T02:18:22.610Z,13.70
2019-05-19T02:20:51.706Z,13.70
2019-05-19T02:23:20.947Z,13.70
2019-05-19T02:25:50.135Z,13.80
2019-05-19T02:28:19.493Z,13.70
2019-05-19T02:30:48.595Z,13.70
2019-05-19T02:33:17.793Z,13.60
2019-05-19T02:35:46.969Z,13.60
2019-05-19T02:38:16.151Z,13.60
2019-05-19T02:40:50.670Z,13.60
2019-05-19T02:43:20.007Z,13.60
2019-05-19T02:45:49.503Z,13.60
2019-05-19T02:48:19.842Z,13.60
2019-05-19T02:50:52.614Z,13.60
2019-05-19T02:53:20.159Z,13.60
2019-05-19T02:55:49.330Z,13.60
2019-05-19T02:58:18.511Z,13.60
2019-05-19T03:00:47.693Z,13.50
2019-05-19T03:03:17.147Z,13.50
2019-05-19T03:05:46.307Z,13.50
2019-05-19T03:08:15.482Z,13.50
2019-05-19T03:10:44.670Z,13.50
2019-05-19T03:13:14.058Z,13.60
2019-05-19T03:15:43.295Z,13.60
2019-05-19T03:18:12.484Z,13.50
2019-05-19T03:20:41.726Z,13.50
2019-05-19T03:23:10.892Z,13.50
2019-05-19T03:25:43.896Z,13.50
2019-05-19T03:28:12.102Z,13.40
2019-05-19T03:30:52.383Z,13.50
2019-05-19T03:33:24.907Z,13.50
2019-05-19T03:35:54.077Z,13.50
2019-05-19T03:38:23.246Z,13.60
2019-05-19T03:40:52.494Z,13.60
2019-05-19T03:43:21.735Z,13.60
2019-05-19T03:45:50.886Z,13.50
2019-05-19T03:48:20.055Z,13.50
2019-05-19T03:50:49.239Z,13.50
2019-05-19T03:53:18.446Z,13.50
2019-05-19T03:55:47.638Z,13.50
2019-05-19T03:58:16.958Z,13.50
2019-05-19T04:00:46.121Z,13.60
2019-05-19T04:03:15.300Z,13.60
2019-05-19T04:05:44.515Z,13.60
2019-05-19T04:08:13.831Z,13.60
2019-05-19T04:10:43.016Z,13.60
2019-05-19T04:13:12.189Z,13.70
2019-05-19T04:15:41.448Z,13.70
2019-05-19T04:18:10.629Z,13.60
2019-05-19T04:20:39.811Z,13.50
2019-05-19T04:23:09.029Z,13.50
2019-05-19T04:25:38.187Z,13.60
2019-05-19T04:28:07.367Z,13.60
2019-05-19T04:30:36.546Z,13.70
2019-05-19T04:33:05.742Z,13.70
2019-05-19T04:35:34.919Z,13.70
2019-05-19T04:38:04.083Z,13.70
2019-05-19T04:40:33.250Z,13.60
2019-05-19T04:43:02.435Z,13.70
2019-05-19T04:45:31.643Z,13.60
2019-05-19T04:48:00.810Z,13.60
2019-05-19T04:50:29.970Z,13.60
2019-05-19T04:52:59.210Z,13.60
2019-05-19T04:55:28.371Z,13.60
2019-05-19T04:57:57.550Z,13.70
2019-05-19T05:00:26.736Z,13.60
2019-05-19T05:02:55.910Z,13.70
2019-05-19T05:05:25.082Z,13.70
2019-05-19T05:07:54.170Z,13.80
2019-05-19T05:10:23.338Z,13.80
2019-05-19T05:12:52.594Z,13.80
2019-05-19T05:15:21.795Z,13.90
2019-05-19T05:17:50.978Z,13.90
2019-05-19T05:20:20.147Z,14.00
2019-05-19T05:22:49.379Z,14.10
2019-05-19T05:25:18.549Z,14.10
2019-05-19T05:27:47.645Z,14.10
2019-05-19T05:30:16.763Z,14.20
2019-05-19T05:32:45.950Z,14.20
2019-05-19T05:35:15.191Z,14.30
2019-05-19T05:37:44.298Z,14.30
2019-05-19T05:40:13.515Z,14.40
2019-05-19T05:42:42.662Z,14.50
2019-05-19T05:45:11.866Z,14.50
2019-05-19T05:47:41.034Z,14.50
2019-05-19T05:50:11.663Z,14.60
2019-05-19T05:52:40.839Z,14.60
2019-05-19T05:55:10.002Z,14.70
2019-05-19T05:57:39.177Z,14.70
2019-05-19T06:00:08.442Z,14.80
2019-05-19T06:02:37.627Z,14.80
2019-05-19T06:05:06.925Z,14.90
2019-05-19T06:07:36.102Z,15.00
2019-05-19T06:10:05.983Z,15.00
2019-05-19T06:12:35.235Z,15.10
2019-05-19T06:15:04.457Z,15.20
2019-05-19T06:17:33.613Z,15.30
2019-05-19T06:20:03.252Z,15.20
2019-05-19T06:22:33.038Z,15.30
2019-05-19T06:25:02.147Z,15.30
2019-05-19T06:27:31.330Z,15.30
2019-05-19T06:30:00.502Z,15.30
2019-05-19T06:32:40.559Z,15.30
2019-05-19T06:35:09.727Z,15.40
2019-05-19T06:37:38.895Z,15.50
2019-05-19T06:40:08.122Z,15.60
2019-05-19T06:42:37.286Z,15.70
2019-05-19T06:45:06.512Z,15.80
2019-05-19T06:47:35.750Z,15.90
2019-05-19T06:50:05.663Z,16.00
2019-05-19T06:52:34.866Z,16.10
2019-05-19T06:55:04.102Z,16.10
2019-05-19T06:57:33.213Z,16.20
2019-05-19T07:00:02.392Z,16.30
2019-05-19T07:02:31.558Z,16.40
2019-05-19T07:05:00.744Z,16.50
2019-05-19T07:07:29.954Z,16.50
2019-05-19T07:09:59.129Z,16.50
2019-05-19T07:12:28.297Z,16.50
2019-05-19T07:14:57.432Z,16.60
2019-05-19T07:17:26.578Z,16.60
2019-05-19T07:19:55.822Z,16.80
2019-05-19T07:22:25.004Z,17.00
2019-05-19T07:24:54.203Z,17.10
2019-05-19T07:27:23.361Z,17.30
2019-05-19T07:29:52.494Z,17.40
2019-05-19T07:32:21.666Z,17.50
2019-05-19T07:34:50.841Z,17.70
2019-05-19T07:37:20.010Z,17.80
2019-05-19T07:39:49.187Z,17.90
2019-05-19T07:42:18.390Z,17.90
2019-05-19T07:44:47.557Z,17.80
2019-05-19T07:47:16.878Z,17.80
2019-05-19T07:49:46.092Z,18.00
2019-05-19T07:52:15.348Z,18.20
2019-05-19T07:54:44.516Z,18.20
2019-05-19T07:57:13.727Z,18.30
2019-05-19T07:59:42.854Z,18.60
2019-05-19T08:02:12.026Z,18.80
2019-05-19T08:04:41.119Z,19.10
2019-05-19T08:07:10.286Z,19.20
2019-05-19T08:09:39.502Z,19.60
2019-05-19T08:12:08.734Z,19.90
2019-05-19T08:14:37.862Z,20.10
2019-05-19T08:17:06.958Z,20.10
2019-05-19T08:19:36.133Z,20.10
2019-05-19T08:22:05.221Z,20.00
2019-05-19T08:24:34.313Z,20.20
2019-05-19T08:27:03.526Z,20.40
2019-05-19T08:29:32.635Z,20.50
2019-05-19T08:32:01.876Z,20.80
2019-05-19T08:34:31.140Z,20.90
2019-05-19T08:37:00.324Z,21.20
2019-05-19T08:39:29.525Z,21.50
2019-05-19T08:41:58.734Z,21.80
2019-05-19T08:44:27.920Z,21.80
2019-05-19T08:46:57.156Z,22.00
2019-05-19T08:49:26.412Z,22.20
2019-05-19T08:51:55.938Z,22.10
2019-05-19T08:54:25.121Z,22.40
2019-05-19T08:56:54.300Z,22.70
2019-05-19T08:59:23.499Z,22.70
2019-05-19T09:01:52.665Z,22.80
2019-05-19T09:04:21.834Z,22.80
2019-05-19T09:06:51.167Z,22.90
2019-05-19T09:09:20.403Z,23.00
2019-05-19T09:11:49.606Z,23.40
2019-05-19T09:14:18.709Z,23.50
2019-05-19T09:16:47.917Z,23.50
2019-05-19T09:19:17.227Z,23.60
2019-05-19T09:21:46.624Z,23.60
2019-05-19T09:24:29.494Z,23.90
2019-05-19T09:26:46.626Z,24.00
2019-05-19T09:29:15.809Z,24.00
2019-05-19T09:31:44.980Z,24.10
2019-05-19T09:34:14.158Z,24.40
2019-05-19T09:36:43.338Z,24.50
2019-05-19T09:39:12.629Z,24.60
2019-05-19T09:41:41.822Z,24.70
2019-05-19T09:44:10.993Z,24.40
2019-05-19T09:46:40.103Z,24.90
2019-05-19T09:49:27.390Z,24.70
2019-05-19T09:51:56.489Z,24.60
2019-05-19T09:54:25.585Z,25.00
2019-05-19T09:56:54.746Z,25.10
2019-05-19T09:59:23.918Z,25.00
2019-05-19T10:01:53.091Z,24.90
2019-05-19T10:04:22.258Z,25.00
2019-05-19T10:06:51.384Z,25.00
2019-05-19T10:09:35.285Z,25.00
2019-05-19T10:12:06.113Z,25.30
2019-05-19T10:14:35.215Z,25.40
2019-05-19T10:17:04.398Z,25.30
2019-05-19T10:19:33.569Z,25.20
2019-05-19T10:22:02.753Z,25.20
2019-05-19T10:24:31.916Z,25.00
2019-05-19T10:27:01.078Z,24.90
2019-05-19T10:29:30.255Z,24.60
2019-05-19T10:31:59.417Z,24.80
2019-05-19T10:34:28.626Z,25.30
2019-05-19T10:36:57.762Z,25.30
2019-05-19T10:39:26.941Z,25.00
2019-05-19T10:41:56.038Z,24.90
2019-05-19T10:44:25.186Z,25.20
2019-05-19T10:46:54.391Z,25.30
2019-05-19T10:49:23.564Z,25.80
2019-05-19T10:51:53.140Z,26.10
2019-05-19T10:54:22.374Z,26.00
2019-05-19T10:56:51.548Z,25.90
2019-05-19T10:59:20.749Z,26.20
2019-05-19T11:01:49.918Z,26.40
2019-05-19T11:04:19.197Z,26.50
2019-05-19T11:06:48.294Z,26.80
2019-05-19T11:09:17.559Z,26.70
2019-05-19T11:11:46.746Z,26.90
2019-05-19T11:14:15.910Z,26.90
2019-05-19T11:16:45.170Z,26.70
2019-05-19T11:19:14.271Z,26.60
2019-05-19T11:21:43.437Z,26.80
2019-05-19T11:24:12.633Z,27.00
2019-05-19T11:26:41.810Z,26.80
2019-05-19T11:29:10.982Z,26.70
2019-05-19T11:31:40.154Z,26.80
2019-05-19T11:34:09.737Z,27.00
2019-05-19T11:36:38.914Z,27.00
2019-05-19T11:39:09.072Z,27.30
2019-05-19T11:41:38.265Z,27.30
2019-05-19T11:44:07.522Z,27.50
2019-05-19T11:46:36.630Z,27.80
2019-05-19T11:49:05.806Z,27.60
2019-05-19T11:51:34.982Z,27.60
2019-05-19T11:54:04.172Z,27.40
2019-05-19T11:56:33.337Z,27.50
2019-05-19T11:59:02.522Z,27.40
2019-05-19T12:01:31.685Z,27.50
2019-05-19T12:04:00.917Z,27.60
2019-05-19T12:06:38.584Z,27.70
2019-05-19T12:09:00.884Z,27.80
2019-05-19T12:11:30.066Z,27.90
2019-05-19T12:13:59.282Z,27.80
2019-05-19T12:16:28.466Z,28.20
2019-05-19T12:18:57.716Z,28.00
2019-05-19T12:21:26.866Z,28.10
2019-05-19T12:23:56.033Z,28.30
2019-05-19T12:26:25.203Z,28.10
2019-05-19T12:28:54.318Z,28.00
2019-05-19T12:31:23.477Z,28.00
2019-05-19T12:33:52.609Z,28.30
2019-05-19T12:36:21.759Z,28.40
2019-05-19T12:38:50.966Z,28.10
2019-05-19T12:41:20.078Z,28.10
2019-05-19T12:43:49.209Z,27.90
2019-05-19T12:46:18.587Z,27.90
2019-05-19T12:48:47.756Z,27.70
2019-05-19T12:51:16.956Z,27.60
2019-05-19T12:53:46.122Z,27.60
2019-05-19T12:56:18.123Z,27.50
2019-05-19T12:58:47.302Z,27.60
2019-05-19T13:01:16.605Z,27.30
2019-05-19T13:03:45.722Z,27.50
2019-05-19T13:06:14.954Z,27.70
2019-05-19T13:08:44.137Z,27.70
2019-05-19T13:11:13.306Z,27.60
2019-05-19T13:13:42.446Z,27.90
2019-05-19T13:16:11.658Z,28.00
2019-05-19T13:18:40.883Z,27.90
2019-05-19T13:21:10.073Z,27.60
2019-05-19T13:23:39.277Z,27.70
2019-05-19T13:26:08.446Z,27.30
2019-05-19T13:28:37.638Z,26.80
2019-05-19T13:31:06.729Z,26.50
2019-05-19T13:33:35.910Z,26.70
2019-05-19T13:36:05.029Z,26.80
2019-05-19T13:38:34.126Z,27.00
2019-05-19T13:41:03.321Z,26.80
2019-05-19T13:43:32.562Z,27.00
2019-05-19T13:46:01.733Z,27.20
2019-05-19T13:48:30.966Z,27.30
2019-05-19T13:51:00.160Z,27.60
2019-05-19T13:53:29.366Z,27.60
2019-05-19T13:55:58.537Z,27.80
2019-05-19T13:58:27.731Z,27.80
2019-05-19T14:00:56.899Z,27.50
2019-05-19T14:03:26.152Z,27.60
2019-05-19T14:05:55.465Z,27.50
2019-05-19T14:08:24.579Z,27.60
2019-05-19T14:10:53.793Z,27.50
2019-05-19T14:13:22.974Z,27.60
2019-05-19T14:15:52.165Z,27.60
2019-05-19T14:18:21.367Z,27.50
2019-05-19T14:20:50.594Z,27.50
2019-05-19T14:23:19.867Z,27.60
2019-05-19T14:25:49.037Z,27.60
2019-05-19T14:28:18.291Z,27.60
2019-05-19T14:30:47.546Z,27.50
2019-05-19T14:33:16.730Z,27.20
2019-05-19T14:35:46.048Z,27.10
2019-05-19T14:38:15.217Z,27.00
2019-05-19T14:40:44.795Z,26.90
2019-05-19T14:43:14.635Z,26.60
2019-05-19T14:45:43.798Z,26.50
2019-05-19T14:48:12.984Z,26.60
2019-05-19T14:50:42.166Z,26.20
2019-05-19T14:53:11.363Z,26.40
2019-05-19T14:55:40.546Z,26.50
2019-05-19T14:58:09.719Z,26.00
2019-05-19T15:00:38.905Z,26.40
2019-05-19T15:03:08.128Z,26.60
2019-05-19T15:05:37.302Z,26.40
2019-05-19T15:08:06.789Z,26.30
2019-05-19T15:10:35.966Z,26.20
2019-05-19T15:13:05.139Z,26.20
2019-05-19T15:15:34.337Z,26.20
2019-05-19T15:18:03.506Z,26.10
2019-05-19T15:20:32.762Z,26.00
2019-05-19T15:23:01.940Z,25.80
2019-05-19T15:25:31.112Z,25.60
2019-05-19T15:28:04.839Z,25.60
2019-05-19T15:30:31.205Z,25.50
2019-05-19T15:33:00.322Z,25.60
2019-05-19T15:35:29.498Z,25.50
2019-05-19T15:37:58.737Z,25.40
2019-05-19T15:40:27.919Z,25.30
2019-05-19T15:42:57.163Z,25.10
2019-05-19T15:45:26.366Z,25.10
2019-05-19T15:47:55.623Z,25.00
2019-05-19T15:50:24.792Z,24.90
2019-05-19T15:52:53.958Z,24.60
2019-05-19T15:55:23.090Z,24.60
2019-05-19T15:57:52.204Z,24.60
2019-05-19T16:00:22.007Z,24.70
2019-05-19T16:02:51.201Z,24.60
2019-05-19T16:05:20.379Z,24.30
2019-05-19T16:07:49.626Z,24.10
2019-05-19T16:10:18.938Z,24.10
2019-05-19T16:12:48.112Z,23.90
2019-05-19T16:15:17.560Z,23.70
2019-05-19T16:17:46.728Z,23.50
2019-05-19T16:20:15.956Z,23.40
2019-05-19T16:22:45.185Z,23.30
2019-05-19T16:25:14.301Z,23.10
2019-05-19T16:27:43.406Z,22.90
2019-05-19T16:30:12.584Z,22.70
2019-05-19T16:32:41.873Z,22.50
2019-05-19T16:35:11.869Z,22.20
2019-05-19T16:37:41.086Z,22.20
2019-05-19T16:40:10.970Z,22.30
2019-05-19T16:42:40.165Z,22.20
2019-05-19T16:45:09.377Z,22.10
2019-05-19T16:47:38.550Z,22.30
2019-05-19T16:50:07.813Z,22.30
2019-05-19T16:52:37.081Z,22.10
2019-05-19T16:55:24.538Z,21.90
2019-05-19T16:57:53.818Z,21.60
2019-05-19T17:00:23.708Z,21.50
2019-05-19T17:02:52.866Z,21.30
2019-05-19T17:05:22.119Z,21.10
2019-05-19T17:07:51.298Z,21.10
2019-05-19T17:10:20.480Z,21.10
2019-05-19T17:12:49.656Z,20.90
2019-05-19T17:15:19.005Z,20.70
2019-05-19T17:17:48.104Z,20.60
2019-05-19T17:20:17.564Z,20.50
2019-05-19T17:22:46.765Z,20.60
2019-05-19T17:25:16.257Z,20.50
2019-05-19T17:27:45.654Z,20.40
2019-05-19T17:30:14.786Z,20.30
2019-05-19T17:32:43.970Z,20.30
2019-05-19T17:35:13.078Z,20.20
2019-05-19T17:37:42.262Z,20.10
2019-05-19T17:40:11.358Z,20.10
2019-05-19T17:42:41.055Z,20.10
2019-05-19T17:45:10.262Z,20.00
2019-05-19T17:47:39.394Z,20.00
2019-05-19T17:50:08.554Z,19.90
2019-05-19T17:52:37.754Z,19.90
2019-05-19T17:55:06.988Z,19.90
2019-05-19T17:57:36.156Z,19.80
2019-05-19T18:00:05.477Z,19.70
2019-05-19T18:02:34.570Z,19.70
2019-05-19T18:05:03.783Z,19.50
2019-05-19T18:07:32.970Z,19.50
2019-05-19T18:10:02.246Z,19.50
2019-05-19T18:12:31.386Z,19.50
2019-05-19T18:15:03.297Z,19.30
2019-05-19T18:17:31.393Z,19.40
2019-05-19T18:20:00.574Z,19.40
2019-05-19T18:22:29.752Z,19.40
2019-05-19T18:24:58.917Z,19.20
2019-05-19T18:27:28.026Z,19.10
2019-05-19T18:29:57.174Z,19.00
2019-05-19T18:32:26.367Z,19.00
2019-05-19T18:34:55.633Z,18.90
2019-05-19T18:37:24.864Z,18.80
2019-05-19T18:39:54.081Z,18.80
2019-05-19T18:42:23.244Z,18.70
2019-05-19T18:44:52.533Z,18.50
2019-05-19T18:47:21.638Z,18.50
2019-05-19T18:49:50.854Z,18.40
2019-05-19T18:52:20.049Z,18.40
2019-05-19T18:54:50.480Z,18.30
2019-05-19T18:57:19.798Z,18.20
2019-05-19T18:59:48.893Z,18.20
2019-05-19T19:02:18.216Z,18.00
2019-05-19T19:04:47.498Z,18.00
2019-05-19T19:07:16.677Z,17.90
2019-05-19T19:09:45.871Z,17.90
2019-05-19T19:12:15.101Z,17.70
2019-05-19T19:14:44.293Z,17.70
2019-05-19T19:17:13.398Z,17.70
2019-05-19T19:19:42.540Z,17.80
2019-05-19T19:22:11.720Z,17.80
2019-05-19T19:24:40.895Z,17.90
2019-05-19T19:27:10.091Z,17.90
2019-05-19T19:29:39.254Z,17.90
2019-05-19T19:32:08.386Z,17.80
2019-05-19T19:34:37.533Z,17.70
2019-05-19T19:37:06.646Z,17.70
2019-05-19T19:39:35.818Z,17.70
2019-05-19T19:42:04.994Z,17.70
2019-05-19T19:44:34.175Z,17.60
2019-05-19T19:47:03.346Z,17.60
2019-05-19T19:49:32.767Z,17.60
2019-05-19T19:52:01.931Z,17.60
2019-05-19T19:54:31.105Z,17.60
2019-05-19T19:57:00.594Z,17.60
2019-05-19T19:59:29.767Z,17.50
2019-05-19T20:01:59.470Z,17.50
2019-05-19T20:04:28.614Z,17.50
2019-05-19T20:06:57.818Z,17.50
2019-05-19T20:09:27.002Z,17.50
2019-05-19T20:11:56.142Z,17.60
2019-05-19T20:14:25.327Z,17.60
2019-05-19T20:16:54.587Z,17.60
2019-05-19T20:19:23.820Z,17.60
2019-05-19T20:21:52.988Z,17.50
2019-05-19T20:24:22.158Z,17.50
2019-05-19T20:26:51.622Z,17.50
2019-05-19T20:29:20.728Z,17.60
2019-05-19T20:31:49.905Z,17.60
2019-05-19T20:34:19.150Z,17.60
2019-05-19T20:36:49.756Z,17.50
2019-05-19T20:39:18.991Z,17.50
2019-05-19T20:41:48.170Z,17.50
2019-05-19T20:44:17.427Z,17.50
2019-05-19T20:46:46.613Z,17.50
2019-05-19T20:49:15.770Z,17.50
2019-05-19T20:51:44.949Z,17.40
2019-05-19T20:54:14.131Z,17.50
2019-05-19T20:56:43.345Z,17.40
2019-05-19T20:59:12.573Z,17.30
2019-05-19T21:01:43.383Z,17.30
2019-05-19T21:04:12.565Z,17.30
2019-05-19T21:06:41.745Z,17.30
2019-05-19T21:09:10.905Z,17.30
2019-05-19T21:11:40.004Z,17.20
2019-05-19T21:14:09.190Z,17.30
2019-05-19T21:16:38.374Z,17.30
2019-05-19T21:19:07.553Z,17.20
2019-05-19T21:21:36.724Z,17.20
2019-05-19T21:24:05.911Z,17.10
2019-05-19T21:26:35.163Z,17.20
2019-05-19T21:29:04.329Z,17.20
2019-05-19T21:31:33.437Z,17.10
2019-05-19T21:34:02.527Z,17.10
2019-05-19T21:36:31.697Z,17.10
2019-05-19T21:39:00.893Z,17.20
2019-05-19T21:41:30.002Z,17.20
2019-05-19T21:43:59.190Z,17.10
2019-05-19T21:46:28.282Z,17.20
2019-05-19T21:48:57.449Z,17.20
2019-05-19T21:51:26.634Z,17.20
2019-05-19T21:53:55.798Z,17.10
2019-05-19T21:56:24.969Z,17.10
2019-05-19T21:58:54.141Z,17.10
2019-05-19T22:01:23.798Z,17.10
2019-05-19T22:03:53.097Z,17.10
2019-05-19T22:06:23.845Z,17.10
2019-05-19T22:08:52.950Z,17.10
2019-05-19T22:11:22.133Z,17.10
2019-05-19T22:13:51.294Z,17.00
2019-05-19T22:16:20.435Z,17.10
2019-05-19T22:18:49.603Z,17.10
2019-05-19T22:21:18.818Z,17.10
2019-05-19T22:23:47.936Z,17.10
2019-05-19T22:26:17.225Z,17.00
2019-05-19T22:28:46.328Z,17.00
2019-05-19T22:31:15.501Z,17.00
2019-05-19T22:33:44.683Z,17.00
2019-05-19T22:36:13.851Z,16.90
2019-05-19T22:38:43.021Z,16.90
2019-05-19T22:41:12.189Z,17.00
2019-05-19T22:43:41.352Z,16.90
2019-05-19T22:46:10.514Z,16.90
2019-05-19T22:48:39.700Z,16.80
2019-05-19T22:51:08.879Z,16.80
2019-05-19T22:53:38.057Z,16.80
2019-05-19T22:56:07.248Z,16.80
2019-05-19T22:58:36.405Z,16.90
2019-05-19T23:01:05.593Z,17.00
2019-05-19T23:03:34.678Z,16.90
2019-05-19T23:06:03.865Z,16.90
2019-05-19T23:08:33.100Z,16.90
2019-05-19T23:11:02.267Z,16.90
2019-05-19T23:13:31.446Z,16.90
2019-05-19T23:16:00.601Z,16.80
2019-05-19T23:18:29.712Z,16.90
2019-05-19T23:20:58.935Z,16.90
2019-05-19T23:23:28.098Z,16.90
2019-05-19T23:25:57.274Z,16.80
2019-05-19T23:28:26.444Z,16.80
2019-05-19T23:30:55.606Z,16.80
2019-05-19T23:33:24.798Z,16.70
2019-05-19T23:35:53.958Z,16.70
2019-05-19T23:38:23.131Z,16.70
2019-05-19T23:40:52.291Z,16.70
2019-05-19T23:43:21.458Z,16.60
2019-05-19T23:45:50.646Z,16.60
2019-05-19T23:48:20.125Z,16.50
2019-05-19T23:50:49.259Z,16.40
2019-05-19T23:53:18.439Z,16.40
2019-05-19T23:55:47.614Z,16.50
2019-05-19T23:58:16.955Z,16.50
